Time,TemperatureF,DewpointF,PressureIn,WindDirection,WindDirectionDegrees,WindSpeedMPH,WindSpeedGustMPH,Humidity,HourlyPrecipIn,Conditions,Clouds,dailyrainin,SoftwareType,DateUTC
2013-02-08 00:07:00,53.4,51.1,29.93,North,0,0.0,0.0,92,0.00,,,0.00,WUHU216HW,2013-02-08 06:07:00,
2013-02-08 00:17:00,53.2,50.9,29.93,North,0,0.0,0.0,92,0.00,,,0.00,WUHU216HW,2013-02-08 06:17:00,
2013-02-08 00:27:00,52.8,50.5,29.93,North,0,0.0,0.0,92,0.00,,,0.00,WUHU216HW,2013-02-08 06:27:00,
2013-02-08 00:37:00,52.7,50.3,29.93,North,0,0.0,0.0,92,0.00,,,0.00,WUHU216HW,2013-02-08 06:37:00,
2013-02-08 00:47:00,52.3,50.0,29.93,North,0,0.0,0.0,92,0.00,,,0.00,WUHU216HW,2013-02-08 06:47:00,
2013-02-08 00:58:00,52.1,49.8,29.93,North,0,0.0,0.0,92,0.00,,,0.00,WUHU216HW,2013-02-08 06:58:00,
2013-02-08 01:08:00,51.9,49.6,29.92,North,0,0.0,0.0,92,0.00,,,0.00,WUHU216HW,2013-02-08 07:08:00,
2013-02-08 01:18:00,51.6,49.6,29.93,North,0,0.0,0.0,93,0.00,,,0.00,WUHU216HW,2013-02-08 07:18:00,
2013-02-08 01:29:00,51.4,49.4,29.93,North,0,0.0,0.0,93,0.00,,,0.00,WUHU216HW,2013-02-08 07:29:00,
2013-02-08 01:40:00,51.2,49.2,29.92,North,0,0.0,0.0,93,0.00,,,0.00,WUHU216HW,2013-02-08 07:40:00,
2013-02-08 01:51:00,51.0,49.0,29.93,North,0,0.0,0.0,93,0.00,,,0.00,WUHU216HW,2013-02-08 07:51:00,
2013-02-08 02:01:00,50.9,48.8,29.93,North,0,0.0,0.0,93,0.00,,,0.00,WUHU216HW,2013-02-08 08:01:00,
2013-02-08 02:11:00,50.7,48.7,29.92,North,0,0.0,0.0,93,0.00,,,0.00,WUHU216HW,2013-02-08 08:11:00,
2013-02-08 02:21:00,50.7,48.7,29.92,North,0,0.0,0.0,93,0.00,,,0.00,WUHU216HW,2013-02-08 08:21:00,
2013-02-08 02:31:00,50.7,48.7,29.93,North,0,0.0,0.0,93,0.00,,,0.00,WUHU216HW,2013-02-08 08:31:00,
2013-02-08 02:42:00,50.5,48.5,29.92,North,0,0.0,0.0,93,0.00,,,0.00,WUHU216HW,2013-02-08 08:42:00,
2013-02-08 02:52:00,50.3,48.3,29.93,North,0,0.0,0.0,93,0.00,,,0.00,WUHU216HW,2013-02-08 08:52:00,
2013-02-08 03:02:00,50.1,48.1,29.93,North,0,0.0,0.0,93,0.00,,,0.00,WUHU216HW,2013-02-08 09:02:00,
2013-02-08 03:13:00,50.1,48.1,29.93,North,0,0.0,0.0,93,0.00,,,0.00,WUHU216HW,2013-02-08 09:13:00,
2013-02-08 03:23:00,50.1,48.1,29.94,North,0,0.0,0.0,93,0.00,,,0.00,WUHU216HW,2013-02-08 09:23:00,
2013-02-08 03:33:00,50.0,47.9,29.94,North,0,0.0,0.0,93,0.00,,,0.00,WUHU216HW,2013-02-08 09:33:00,
2013-02-08 03:44:00,49.8,47.8,29.94,North,0,0.0,0.0,93,0.00,,,0.00,WUHU216HW,2013-02-08 09:44:00,
2013-02-08 03:54:00,49.8,47.8,29.94,North,0,0.0,0.0,93,0.00,,,0.00,WUHU216HW,2013-02-08 09:54:00,
2013-02-08 04:05:00,49.6,47.6,29.94,North,0,0.0,0.0,93,0.00,,,0.00,WUHU216HW,2013-02-08 10:05:00,
2013-02-08 04:15:00,49.6,47.6,29.94,North,0,0.0,0.0,93,0.00,,,0.00,WUHU216HW,2013-02-08 10:15:00,
2013-02-08 04:25:00,49.2,47.3,29.95,North,0,0.0,0.0,93,0.00,,,0.00,WUHU216HW,2013-02-08 10:25:00,
2013-02-08 04:36:00,49.2,47.5,29.95,North,0,0.0,0.0,94,0.00,,,0.00,WUHU216HW,2013-02-08 10:36:00,
2013-02-08 04:46:00,49.1,47.4,29.96,North,0,0.0,0.0,94,0.00,,,0.00,WUHU216HW,2013-02-08 10:46:00,
2013-02-08 04:56:00,49.1,47.4,29.96,North,0,0.0,0.0,94,0.00,,,0.00,WUHU216HW,2013-02-08 10:56:00,
2013-02-08 05:07:00,48.9,47.2,29.97,North,0,0.0,0.0,94,0.00,,,0.00,WUHU216HW,2013-02-08 11:07:00,
2013-02-08 05:17:00,48.7,47.0,29.97,North,0,0.0,0.0,94,0.00,,,0.00,WUHU216HW,2013-02-08 11:17:00,
2013-02-08 05:27:00,48.7,47.0,29.97,North,0,0.0,0.0,94,0.00,,,0.00,WUHU216HW,2013-02-08 11:27:00,
2013-02-08 05:37:00,48.5,46.9,29.98,North,0,0.0,0.0,94,0.00,,,0.00,WUHU216HW,2013-02-08 11:37:00,
2013-02-08 05:47:00,48.3,46.7,29.99,North,0,0.0,0.0,94,0.00,,,0.00,WUHU216HW,2013-02-08 11:47:00,
2013-02-08 05:57:00,48.3,46.7,29.99,North,0,0.0,0.0,94,0.00,,,0.00,WUHU216HW,2013-02-08 11:57:00,
2013-02-08 06:07:00,48.3,46.7,29.99,North,0,0.0,0.0,94,0.00,,,0.00,WUHU216HW,2013-02-08 12:07:00,
2013-02-08 06:18:00,48.3,46.7,29.99,North,0,0.0,0.0,94,0.00,,,0.00,WUHU216HW,2013-02-08 12:18:00,
2013-02-08 06:29:00,48.3,46.7,29.99,North,0,0.0,0.0,94,0.00,,,0.00,WUHU216HW,2013-02-08 12:29:00,
2013-02-08 06:39:00,48.5,46.9,29.99,North,0,0.0,0.0,94,0.00,,,0.00,WUHU216HW,2013-02-08 12:39:00,
2013-02-08 06:49:00,48.7,47.0,30.00,North,0,0.0,0.0,94,0.00,,,0.00,WUHU216HW,2013-02-08 12:49:00,
2013-02-08 06:59:00,48.7,47.0,30.00,North,0,0.0,0.0,94,0.00,,,0.00,WUHU216HW,2013-02-08 12:59:00,
2013-02-08 07:09:00,48.7,47.0,30.00,North,0,0.0,0.0,94,0.00,,,0.00,WUHU216HW,2013-02-08 13:09:00,
2013-02-08 07:19:00,49.1,47.4,30.00,North,0,0.0,0.0,94,0.00,,,0.00,WUHU216HW,2013-02-08 13:19:00,
2013-02-08 07:29:00,49.2,47.5,30.01,North,0,0.0,0.0,94,0.00,,,0.00,WUHU216HW,2013-02-08 13:29:00,
2013-02-08 07:40:00,49.6,47.9,30.01,North,0,0.0,0.0,94,0.00,,,0.00,WUHU216HW,2013-02-08 13:40:00,
2013-02-08 07:51:00,50.5,48.8,30.01,North,0,0.0,0.0,94,0.00,,,0.00,WUHU216HW,2013-02-08 13:51:00,
2013-02-08 08:01:00,51.0,49.3,30.01,North,0,0.0,0.0,94,0.00,,,0.00,WUHU216HW,2013-02-08 14:01:00,
2013-02-08 08:11:00,52.1,50.3,30.02,North,0,0.0,0.0,94,0.00,,,0.00,WUHU216HW,2013-02-08 14:11:00,
2013-02-08 08:21:00,53.4,51.6,30.02,North,0,0.0,0.0,94,0.00,,,0.00,WUHU216HW,2013-02-08 14:21:00,
2013-02-08 08:31:00,54.5,53.0,30.02,North,0,0.0,0.0,95,0.00,,,0.00,WUHU216HW,2013-02-08 14:31:00,
2013-02-08 08:41:00,55.5,53.6,30.02,North,0,0.0,0.0,94,0.00,,,0.00,WUHU216HW,2013-02-08 14:41:00,
2013-02-08 08:51:00,56.4,54.5,30.02,North,0,0.0,0.0,93,0.00,,,0.00,WUHU216HW,2013-02-08 14:51:00,
2013-02-08 09:01:00,57.0,55.0,30.02,SSW,199,1.9,2.0,93,0.00,,,0.00,WUHU216HW,2013-02-08 15:01:00,
2013-02-08 09:11:00,58.1,56.1,30.03,SSE,163,2.8,2.9,93,0.00,,,0.00,WUHU216HW,2013-02-08 15:11:00,
2013-02-08 09:21:00,58.8,56.8,30.03,South,186,1.3,1.6,93,0.00,,,0.00,WUHU216HW,2013-02-08 15:21:00,
2013-02-08 09:32:00,59.9,57.5,30.03,South,180,1.5,1.8,92,0.00,,,0.00,WUHU216HW,2013-02-08 15:32:00,
2013-02-08 09:43:00,60.6,58.2,30.03,South,180,1.3,1.8,92,0.00,,,0.00,WUHU216HW,2013-02-08 15:43:00,
2013-02-08 09:54:00,61.7,58.9,30.04,SW,221,1.6,2.0,91,0.00,,,0.00,WUHU216HW,2013-02-08 15:54:00,
2013-02-08 10:04:00,62.4,59.3,30.03,South,176,2.7,3.5,90,0.00,,,0.00,WUHU216HW,2013-02-08 16:04:00,
2013-02-08 10:14:00,63.1,59.3,30.04,SE,146,1.0,1.3,88,0.00,,,0.00,WUHU216HW,2013-02-08 16:14:00,
2013-02-08 10:25:00,64.0,59.9,30.03,SW,225,2.4,3.1,87,0.00,,,0.00,WUHU216HW,2013-02-08 16:25:00,
2013-02-08 10:35:00,64.5,60.0,30.03,SSW,201,2.1,3.1,85,0.00,,,0.00,WUHU216HW,2013-02-08 16:35:00,
2013-02-08 10:45:00,64.9,60.1,30.04,SSW,213,2.1,2.9,84,0.00,,,0.00,WUHU216HW,2013-02-08 16:45:00,
2013-02-08 10:55:00,65.8,60.6,30.04,North,358,2.2,4.6,83,0.00,,,0.00,WUHU216HW,2013-02-08 16:55:00,
2013-02-08 11:05:00,66.2,60.7,30.03,North,354,4.0,4.6,82,0.00,,,0.00,WUHU216HW,2013-02-08 17:05:00,
2013-02-08 11:16:00,66.2,60.7,30.03,West,271,3.2,3.5,82,0.00,,,0.00,WUHU216HW,2013-02-08 17:16:00,
2013-02-08 11:26:00,66.3,60.4,30.03,North,0,0.0,0.0,81,0.00,,,0.00,WUHU216HW,2013-02-08 17:26:00,
2013-02-08 11:36:00,66.3,60.4,30.03,NW,324,1.6,2.6,81,0.00,,,0.00,WUHU216HW,2013-02-08 17:36:00,
2013-02-08 11:46:00,66.0,60.1,30.03,NNW,340,1.9,4.6,81,0.00,,,0.00,WUHU216HW,2013-02-08 17:46:00,
2013-02-08 11:56:00,66.5,60.6,30.03,WSW,257,1.1,1.3,81,0.00,,,0.00,WUHU216HW,2013-02-08 17:56:00,
2013-02-08 12:07:00,67.2,60.9,30.03,West,281,1.4,1.8,80,0.00,,,0.00,WUHU216HW,2013-02-08 18:07:00,
2013-02-08 12:17:00,67.6,60.9,30.02,West,263,1.9,5.3,79,0.00,,,0.00,WUHU216HW,2013-02-08 18:17:00,
2013-02-08 12:27:00,67.6,60.9,30.02,WSW,251,2.9,3.7,79,0.00,,,0.00,WUHU216HW,2013-02-08 18:27:00,
2013-02-08 12:37:00,67.8,61.1,30.02,WNW,293,0.7,0.7,79,0.00,,,0.00,WUHU216HW,2013-02-08 18:37:00,
2013-02-08 12:47:00,68.3,60.9,30.02,NNW,337,1.6,2.6,77,0.00,,,0.00,WUHU216HW,2013-02-08 18:47:00,
2013-02-08 12:57:00,68.5,61.1,30.01,North,4,1.8,3.5,77,0.00,,,0.00,WUHU216HW,2013-02-08 18:57:00,
2013-02-08 13:07:00,68.5,60.8,30.01,NNW,345,1.6,2.6,76,0.00,,,0.00,WUHU216HW,2013-02-08 19:07:00,
2013-02-08 13:17:00,68.3,60.6,30.01,West,281,2.3,6.4,76,0.00,,,0.00,WUHU216HW,2013-02-08 19:17:00,
2013-02-08 13:28:00,68.5,60.8,30.00,NNE,13,2.3,2.6,76,0.00,,,0.00,WUHU216HW,2013-02-08 19:28:00,
2013-02-08 13:39:00,69.4,61.3,30.00,West,265,2.8,4.0,75,0.00,,,0.00,WUHU216HW,2013-02-08 19:39:00,
2013-02-08 13:49:00,69.0,61.0,30.01,West,270,1.8,1.8,75,0.00,,,0.00,WUHU216HW,2013-02-08 19:49:00,
2013-02-08 13:59:00,68.3,60.3,30.01,WNW,293,1.0,1.0,75,0.00,,,0.00,WUHU216HW,2013-02-08 19:59:00,
2013-02-08 14:09:00,67.2,59.6,30.02,WNW,284,1.4,2.9,76,0.00,,,0.00,WUHU216HW,2013-02-08 20:09:00,
2013-02-08 14:19:00,66.7,59.1,30.02,NW,316,1.9,3.1,76,0.00,,,0.00,WUHU216HW,2013-02-08 20:19:00,
2013-02-08 14:30:00,66.5,59.0,30.01,North,0,0.0,0.0,77,0.00,,,0.00,WUHU216HW,2013-02-08 20:30:00,
2013-02-08 14:40:00,66.9,59.4,30.01,North,0,0.0,0.0,77,0.00,,,0.00,WUHU216HW,2013-02-08 20:40:00,
2013-02-08 14:50:00,67.6,60.1,30.01,West,264,1.2,1.6,77,0.00,,,0.00,WUHU216HW,2013-02-08 20:50:00,
2013-02-08 15:00:00,68.1,59.5,30.00,NW,311,1.1,1.6,74,0.00,,,0.00,WUHU216HW,2013-02-08 21:00:00,
2013-02-08 15:10:00,68.1,58.8,30.00,West,262,2.1,4.0,72,0.00,,,0.00,WUHU216HW,2013-02-08 21:10:00,
2013-02-08 15:20:00,68.1,58.8,30.00,North,349,1.7,2.0,72,0.00,,,0.00,WUHU216HW,2013-02-08 21:20:00,
2013-02-08 15:30:00,68.3,59.1,30.00,WNW,288,1.7,1.8,72,0.00,,,0.00,WUHU216HW,2013-02-08 21:30:00,
2013-02-08 15:40:00,68.5,59.3,30.00,North,0,0.0,0.0,72,0.00,,,0.00,WUHU216HW,2013-02-08 21:40:00,
2013-02-08 15:50:00,68.1,58.6,30.00,North,358,1.4,1.8,71,0.00,,,0.00,WUHU216HW,2013-02-08 21:50:00,
2013-02-08 16:00:00,68.1,58.6,30.00,NNW,343,1.5,1.8,71,0.00,,,0.00,WUHU216HW,2013-02-08 22:00:00,
2013-02-08 16:10:00,68.1,58.7,30.00,North,352,2.2,2.9,71,0.00,,,0.00,WUHU216HW,2013-02-08 22:10:00,
2013-02-08 16:20:00,67.8,58.8,30.00,North,0,0.0,0.0,73,0.00,,,0.00,WUHU216HW,2013-02-08 22:20:00,
2013-02-08 16:31:00,67.6,58.7,30.00,NW,315,1.8,1.8,73,0.00,,,0.00,WUHU216HW,2013-02-08 22:31:00,
2013-02-08 16:41:00,67.1,58.2,30.01,North,0,0.0,0.0,73,0.00,,,0.00,WUHU216HW,2013-02-08 22:41:00,
2013-02-08 16:51:00,66.5,58.4,30.01,North,0,0.0,0.0,75,0.00,,,0.00,WUHU216HW,2013-02-08 22:51:00,
2013-02-08 17:01:00,66.0,57.8,30.01,North,0,0.0,0.0,75,0.00,,,0.00,WUHU216HW,2013-02-08 23:01:00,
2013-02-08 17:11:00,65.3,57.5,30.02,North,0,0.0,0.0,76,0.00,,,0.00,WUHU216HW,2013-02-08 23:11:00,
2013-02-08 17:21:00,64.5,57.1,30.02,North,0,0.0,0.0,77,0.00,,,0.00,WUHU216HW,2013-02-08 23:21:00,
2013-02-08 17:31:00,63.8,56.8,30.02,North,0,0.0,0.0,78,0.00,,,0.00,WUHU216HW,2013-02-08 23:31:00,
2013-02-08 17:41:00,62.7,56.4,30.03,North,0,0.0,0.0,80,0.00,,,0.00,WUHU216HW,2013-02-08 23:41:00,
2013-02-08 17:51:00,62.2,56.3,30.03,North,0,0.0,0.0,81,0.00,,,0.00,WUHU216HW,2013-02-08 23:51:00,
2013-02-08 18:02:00,61.7,55.8,30.04,NE,53,2.4,2.6,81,0.00,,,0.00,WUHU216HW,2013-02-09 00:02:00,
2013-02-08 18:12:00,61.5,55.9,30.04,North,0,0.0,0.0,82,0.00,,,0.00,WUHU216HW,2013-02-09 00:12:00,
2013-02-08 18:22:00,61.1,55.6,30.04,NNW,338,0.7,0.7,82,0.00,,,0.00,WUHU216HW,2013-02-09 00:22:00,
2013-02-08 18:32:00,60.6,55.1,30.05,North,0,0.0,0.0,82,0.00,,,0.00,WUHU216HW,2013-02-09 00:32:00,
2013-02-08 18:43:00,60.2,54.7,30.05,North,0,0.0,0.0,82,0.00,,,0.00,WUHU216HW,2013-02-09 00:43:00,
2013-02-08 18:53:00,59.7,54.2,30.06,North,0,0.0,0.0,82,0.00,,,0.00,WUHU216HW,2013-02-09 00:53:00,
2013-02-08 19:03:00,59.5,54.3,30.06,North,0,0.0,0.0,83,0.00,,,0.00,WUHU216HW,2013-02-09 01:03:00,
2013-02-08 19:14:00,58.8,53.6,30.07,North,0,0.0,0.0,83,0.00,,,0.00,WUHU216HW,2013-02-09 01:14:00,
2013-02-08 19:24:00,58.6,54.1,30.07,North,11,2.6,4.8,85,0.00,,,0.00,WUHU216HW,2013-02-09 01:24:00,
2013-02-08 19:36:00,58.2,53.7,30.08,NNE,18,1.4,1.6,85,0.00,,,0.00,WUHU216HW,2013-02-09 01:36:00,
2013-02-08 19:46:00,58.2,53.7,30.08,North,353,1.6,2.4,85,0.00,,,0.00,WUHU216HW,2013-02-09 01:46:00,
2013-02-08 19:56:00,58.1,53.6,30.09,NNW,348,3.9,5.0,85,0.00,,,0.00,WUHU216HW,2013-02-09 01:56:00,
2013-02-08 20:06:00,57.7,53.2,30.09,North,353,2.1,3.7,85,0.00,,,0.00,WUHU216HW,2013-02-09 02:06:00,
2013-02-08 20:16:00,57.3,52.8,30.10,North,1,2.7,2.9,85,0.00,,,0.00,WUHU216HW,2013-02-09 02:16:00,
2013-02-08 20:26:00,57.0,52.5,30.10,North,2,3.6,4.8,85,0.00,,,0.00,WUHU216HW,2013-02-09 02:26:00,
2013-02-08 20:38:00,56.8,52.3,30.11,North,0,0.0,0.0,85,0.00,,,0.00,WUHU216HW,2013-02-09 02:38:00,
2013-02-08 20:48:00,56.4,51.9,30.11,NNE,12,1.8,2.9,85,0.00,,,0.00,WUHU216HW,2013-02-09 02:48:00,
2013-02-08 20:58:00,56.1,51.6,30.12,North,0,0.0,0.0,85,0.00,,,0.00,WUHU216HW,2013-02-09 02:58:00,
2013-02-08 21:08:00,56.3,52.1,30.12,North,0,0.0,0.0,86,0.00,,,0.00,WUHU216HW,2013-02-09 03:08:00,
2013-02-08 21:18:00,56.4,52.3,30.12,NNE,13,1.4,2.9,86,0.00,,,0.00,WUHU216HW,2013-02-09 03:18:00,
2013-02-08 21:29:00,56.8,52.3,30.12,NNW,340,2.2,4.2,85,0.00,,,0.00,WUHU216HW,2013-02-09 03:29:00,
2013-02-08 21:40:00,56.8,52.3,30.12,NNW,345,3.6,7.2,85,0.00,,,0.00,WUHU216HW,2013-02-09 03:40:00,
2013-02-08 21:50:00,56.4,51.9,30.12,NE,38,4.0,4.8,85,0.00,,,0.00,WUHU216HW,2013-02-09 03:50:00,
2013-02-08 22:00:00,56.4,51.9,30.12,NE,35,1.4,1.6,85,0.00,,,0.00,WUHU216HW,2013-02-09 04:00:00,
2013-02-08 22:11:00,56.4,51.6,30.12,NNW,343,2.5,3.1,84,0.00,,,0.00,WUHU216HW,2013-02-09 04:11:00,
2013-02-08 22:21:00,56.4,51.6,30.12,North,1,3.3,6.4,84,0.00,,,0.00,WUHU216HW,2013-02-09 04:21:00,
2013-02-08 22:31:00,56.4,51.6,30.12,North,353,2.3,2.6,84,0.00,,,0.00,WUHU216HW,2013-02-09 04:31:00,
2013-02-08 22:41:00,56.4,51.6,30.12,North,2,2.3,3.7,84,0.00,,,0.00,WUHU216HW,2013-02-09 04:41:00,
2013-02-08 22:51:00,56.1,51.2,30.13,North,11,3.7,5.3,84,0.00,,,0.00,WUHU216HW,2013-02-09 04:51:00,
2013-02-08 23:02:00,55.7,50.9,30.12,NNE,29,2.6,3.1,84,0.00,,,0.00,WUHU216HW,2013-02-09 05:02:00,
2013-02-08 23:12:00,55.4,50.5,30.12,NNW,343,1.3,1.6,84,0.00,,,0.00,WUHU216HW,2013-02-09 05:12:00,
2013-02-08 23:22:00,55.0,50.2,30.13,North,11,1.3,1.3,84,0.00,,,0.00,WUHU216HW,2013-02-09 05:22:00,
2013-02-08 23:33:00,54.3,49.5,30.13,North,0,0.0,0.0,84,0.00,,,0.00,WUHU216HW,2013-02-09 05:33:00,
2013-02-08 23:44:00,53.7,49.3,30.12,NNW,338,1.0,1.0,85,0.00,,,0.00,WUHU216HW,2013-02-09 05:44:00,
2013-02-08 23:54:00,53.4,49.3,30.13,North,0,0.0,0.0,86,0.00,,,0.00,WUHU216HW,2013-02-09 05:54:00,